JBU966 SYCJ-KJFK
Flight info
| Callsign | JBU966 |
|---|---|
| Flight time | 5h 18m |
| Altitude | 32000 |
| Route | SORRL UL329 ZPATA L329 SAULT/N0468F340 L329 KEEKA/M079F340 L459 SAVIK/N0463F340 Y486 OWENZ Y495 CAMRN CAMRN4 |
| Aircraft | A21N/M-SDE3FGHIRWY/LB1 |
Departure
| Time | 2026-05-03 20:23 |
|---|---|
| Airport | Cheddi Jagan International Airport (SYCJ) |
Arrival
| Time | 2026-05-04 01:42 |
|---|---|
| Airport | John F. Kennedy International Airport (KJFK) |
| Time | Latitude | Longitude | Altitude | Speed | Heading |
|---|---|---|---|---|---|
| 2026-05-03 20:15 | 6.50287 | -58.25222 | 94 ft | 2 kts | 230° |
| 2026-05-03 20:15 | 6.50267 | -58.25240 | 94 ft | 5 kts | 222° |
| 2026-05-03 20:15 | 6.50235 | -58.25264 | 95 ft | 5 kts | 200° |
| 2026-05-03 20:15 | 6.50205 | -58.25256 | 95 ft | 4 kts | 148° |
| 2026-05-03 20:16 | 6.50181 | -58.25252 | 96 ft | 3 kts | 205° |
| 2026-05-03 20:16 | 6.50164 | -58.25264 | 96 ft | 2 kts | 219° |
| 2026-05-03 20:16 | 6.50145 | -58.25281 | 96 ft | 4 kts | 224° |
| 2026-05-03 20:16 | 6.50124 | -58.25302 | 97 ft | 4 kts | 224° |
| 2026-05-03 20:17 | 6.50102 | -58.25323 | 97 ft | 4 kts | 224° |
| 2026-05-03 20:17 | 6.50080 | -58.25344 | 97 ft | 4 kts | 224° |
| 2026-05-03 20:17 | 6.50053 | -58.25369 | 97 ft | 5 kts | 224° |
| 2026-05-03 20:17 | 6.50021 | -58.25399 | 97 ft | 6 kts | 223° |
| 2026-05-03 20:18 | 6.49986 | -58.25435 | 97 ft | 7 kts | 226° |
| 2026-05-03 20:18 | 6.49947 | -58.25475 | 98 ft | 7 kts | 226° |
| 2026-05-03 20:18 | 6.49913 | -58.25511 | 99 ft | 6 kts | 226° |
| 2026-05-03 20:18 | 6.49880 | -58.25545 | 100 ft | 6 kts | 226° |
| 2026-05-03 20:19 | 6.49847 | -58.25579 | 100 ft | 6 kts | 225° |
| 2026-05-03 20:19 | 6.49814 | -58.25612 | 101 ft | 7 kts | 225° |
| 2026-05-03 20:19 | 6.49777 | -58.25650 | 101 ft | 8 kts | 225° |
| 2026-05-03 20:19 | 6.49735 | -58.25692 | 100 ft | 9 kts | 225° |
| 2026-05-03 20:20 | 6.49684 | -58.25743 | 99 ft | 11 kts | 225° |
| 2026-05-03 20:20 | 6.49628 | -58.25800 | 99 ft | 11 kts | 225° |
| 2026-05-03 20:20 | 6.49569 | -58.25858 | 99 ft | 12 kts | 225° |
| 2026-05-03 20:20 | 6.49506 | -58.25921 | 97 ft | 13 kts | 224° |
| 2026-05-03 20:21 | 6.49435 | -58.25990 | 95 ft | 15 kts | 229° |
| 2026-05-03 20:21 | 6.49357 | -58.26073 | 90 ft | 17 kts | 226° |
| 2026-05-03 20:21 | 6.49244 | -58.26110 | 88 ft | 22 kts | 151° |
| 2026-05-03 20:21 | 6.49087 | -58.26183 | 83 ft | 30 kts | 225° |
| 2026-05-03 20:22 | 6.48923 | -58.26346 | 60 ft | 35 kts | 226° |
| 2026-05-03 20:22 | 6.48778 | -58.26508 | 47 ft | 12 kts | 223° |
| 2026-05-03 20:22 | 6.48773 | -58.26496 | 47 ft | 5 kts | 45° |
| 2026-05-03 20:22 | 6.48871 | -58.26398 | 52 ft | 48 kts | 45° |
| 2026-05-03 20:23 | 6.49263 | -58.26005 | 94 ft | 108 kts | 45° |
| 2026-05-03 20:23 | 6.49943 | -58.25331 | 100 ft | 161 kts | 47° |
| 2026-05-03 20:23 | 6.50763 | -58.24533 | 606 ft | 162 kts | 44° |
| 2026-05-03 20:23 | 6.51563 | -58.23784 | 1214 ft | 159 kts | 45° |
| 2026-05-03 20:24 | 6.52439 | -58.23116 | 1784 ft | 160 kts | 21° |
| 2026-05-03 20:24 | 6.53568 | -58.23216 | 2013 ft | 176 kts | 339° |
| 2026-05-03 20:24 | 6.54683 | -58.23843 | 2218 ft | 188 kts | 338° |
| 2026-05-03 20:24 | 6.55920 | -58.24441 | 2441 ft | 198 kts | 341° |
| 2026-05-03 20:25 | 6.57218 | -58.25018 | 2676 ft | 210 kts | 341° |
| 2026-05-03 20:25 | 6.58615 | -58.25617 | 2912 ft | 223 kts | 342° |
| 2026-05-03 20:25 | 6.60111 | -58.26245 | 3097 ft | 240 kts | 342° |
| 2026-05-03 20:25 | 6.61715 | -58.26910 | 3367 ft | 255 kts | 341° |
| 2026-05-03 20:26 | 6.63409 | -58.27615 | 3759 ft | 264 kts | 341° |
| 2026-05-03 20:26 | 6.65134 | -58.28332 | 4314 ft | 267 kts | 341° |
| 2026-05-03 20:26 | 6.66882 | -58.29060 | 4870 ft | 270 kts | 342° |
| 2026-05-03 20:26 | 6.68636 | -58.29787 | 5399 ft | 274 kts | 341° |
| 2026-05-03 20:27 | 6.70403 | -58.30516 | 5917 ft | 277 kts | 341° |
| 2026-05-03 20:27 | 6.72237 | -58.31273 | 6448 ft | 280 kts | 341° |
| 2026-05-03 20:27 | 6.74056 | -58.32025 | 6970 ft | 283 kts | 341° |
| 2026-05-03 20:27 | 6.75894 | -58.32784 | 7472 ft | 286 kts | 341° |
| 2026-05-03 20:28 | 6.77760 | -58.33553 | 7970 ft | 289 kts | 341° |
| 2026-05-03 20:28 | 6.79638 | -58.34329 | 8436 ft | 292 kts | 341° |
| 2026-05-03 20:28 | 6.81550 | -58.35117 | 8907 ft | 295 kts | 341° |
| 2026-05-03 20:28 | 6.83457 | -58.35906 | 9371 ft | 297 kts | 341° |
| 2026-05-03 20:29 | 6.85387 | -58.36702 | 9807 ft | 300 kts | 341° |
| 2026-05-03 20:29 | 6.87330 | -58.37504 | 10221 ft | 303 kts | 341° |
| 2026-05-03 20:29 | 6.89329 | -58.38328 | 10430 ft | 314 kts | 341° |
| 2026-05-03 20:29 | 6.91404 | -58.39181 | 10639 ft | 325 kts | 341° |
| 2026-05-03 20:30 | 6.93549 | -58.40066 | 10837 ft | 336 kts | 341° |
| 2026-05-03 20:30 | 6.95754 | -58.40974 | 11022 ft | 347 kts | 340° |
| 2026-05-03 20:30 | 6.98047 | -58.41922 | 11203 ft | 357 kts | 341° |
| 2026-05-03 20:30 | 7.00388 | -58.42890 | 11386 ft | 367 kts | 340° |
| 2026-05-03 20:31 | 7.02788 | -58.43880 | 11559 ft | 376 kts | 340° |
| 2026-05-03 20:31 | 7.05233 | -58.44891 | 11835 ft | 381 kts | 340° |
| 2026-05-03 20:31 | 7.07724 | -58.45924 | 12211 ft | 383 kts | 340° |
| 2026-05-03 20:31 | 7.10214 | -58.46954 | 12576 ft | 386 kts | 340° |
| 2026-05-03 20:32 | 7.12685 | -58.47975 | 12943 ft | 387 kts | 340° |
| 2026-05-03 20:32 | 7.15193 | -58.49012 | 13322 ft | 389 kts | 340° |
| 2026-05-03 20:32 | 7.17719 | -58.50055 | 13673 ft | 390 kts | 341° |
| 2026-05-03 20:32 | 7.20273 | -58.51111 | 14028 ft | 392 kts | 340° |
| 2026-05-03 20:33 | 7.22813 | -58.52159 | 14371 ft | 393 kts | 341° |
| 2026-05-03 20:33 | 7.25371 | -58.53217 | 14729 ft | 394 kts | 341° |
| 2026-05-03 20:33 | 7.27933 | -58.54279 | 15048 ft | 396 kts | 341° |
| 2026-05-03 20:33 | 7.30475 | -58.55330 | 15356 ft | 398 kts | 340° |
| 2026-05-03 20:34 | 7.33065 | -58.56400 | 15662 ft | 400 kts | 341° |
| 2026-05-03 20:34 | 7.35655 | -58.57471 | 15964 ft | 401 kts | 341° |
| 2026-05-03 20:34 | 7.38235 | -58.58538 | 16271 ft | 403 kts | 340° |
| 2026-05-03 20:34 | 7.40834 | -58.59613 | 16559 ft | 404 kts | 341° |
| 2026-05-03 20:35 | 7.43445 | -58.60695 | 16830 ft | 406 kts | 341° |
| 2026-05-03 20:35 | 7.46104 | -58.61796 | 17128 ft | 407 kts | 341° |
| 2026-05-03 20:35 | 7.48736 | -58.62885 | 17391 ft | 409 kts | 341° |
| 2026-05-03 20:35 | 7.51383 | -58.63978 | 17644 ft | 411 kts | 341° |
| 2026-05-03 20:36 | 7.54011 | -58.65065 | 17888 ft | 413 kts | 340° |
| 2026-05-03 20:36 | 7.56693 | -58.66174 | 18133 ft | 414 kts | 340° |
| 2026-05-03 20:36 | 7.59366 | -58.67279 | 18360 ft | 416 kts | 340° |
| 2026-05-03 20:36 | 7.62073 | -58.68401 | 18571 ft | 419 kts | 340° |
| 2026-05-03 20:37 | 7.64792 | -58.69526 | 18793 ft | 421 kts | 340° |
| 2026-05-03 20:37 | 7.67493 | -58.70645 | 19024 ft | 422 kts | 339° |
| 2026-05-03 20:37 | 7.70232 | -58.71782 | 19247 ft | 424 kts | 340° |
| 2026-05-03 20:37 | 7.72980 | -58.72920 | 19471 ft | 425 kts | 339° |
| 2026-05-03 20:38 | 7.75701 | -58.74049 | 19690 ft | 427 kts | 340° |
| 2026-05-03 20:38 | 7.78459 | -58.75190 | 19898 ft | 428 kts | 339° |
| 2026-05-03 20:38 | 7.81235 | -58.76343 | 20116 ft | 430 kts | 339° |
| 2026-05-03 20:38 | 7.84035 | -58.77502 | 20321 ft | 431 kts | 339° |
| 2026-05-03 20:39 | 7.86830 | -58.78663 | 20529 ft | 433 kts | 339° |
| 2026-05-03 20:39 | 7.89598 | -58.79810 | 20723 ft | 434 kts | 339° |
| 2026-05-03 20:39 | 7.92414 | -58.80977 | 20919 ft | 436 kts | 339° |
| 2026-05-03 20:39 | 7.95255 | -58.82155 | 21121 ft | 437 kts | 338° |
| 2026-05-03 20:40 | 7.98054 | -58.83317 | 21319 ft | 438 kts | 338° |
| 2026-05-03 20:40 | 8.00904 | -58.84499 | 21504 ft | 440 kts | 338° |
| 2026-05-03 20:40 | 8.03721 | -58.85669 | 21698 ft | 441 kts | 338° |
| 2026-05-03 20:40 | 8.06579 | -58.86856 | 21871 ft | 443 kts | 338° |
| 2026-05-03 20:41 | 8.09442 | -58.88046 | 22019 ft | 445 kts | 338° |
| 2026-05-03 20:41 | 8.12323 | -58.89243 | 22202 ft | 446 kts | 338° |
| 2026-05-03 20:41 | 8.15220 | -58.90447 | 22413 ft | 447 kts | 338° |
| 2026-05-03 20:41 | 8.18080 | -58.91635 | 22626 ft | 447 kts | 338° |
| 2026-05-03 20:42 | 8.20971 | -58.92835 | 22816 ft | 447 kts | 338° |
| 2026-05-03 20:42 | 8.23849 | -58.94030 | 23013 ft | 448 kts | 338° |
| 2026-05-03 20:42 | 8.26754 | -58.95237 | 23197 ft | 448 kts | 337° |
| 2026-05-03 20:42 | 8.29669 | -58.96448 | 23394 ft | 449 kts | 337° |
| 2026-05-03 20:43 | 8.32531 | -58.97637 | 23584 ft | 449 kts | 337° |
| 2026-05-03 20:43 | 8.35434 | -58.98843 | 23799 ft | 448 kts | 337° |
| 2026-05-03 20:43 | 8.38331 | -59.00050 | 24004 ft | 448 kts | 337° |
| 2026-05-03 20:43 | 8.41225 | -59.01254 | 24191 ft | 448 kts | 336° |
| 2026-05-03 20:44 | 8.44111 | -59.02454 | 24379 ft | 448 kts | 336° |
| 2026-05-03 20:44 | 8.46986 | -59.03651 | 24552 ft | 448 kts | 336° |
| 2026-05-03 20:44 | 8.49901 | -59.04866 | 24715 ft | 449 kts | 336° |
| 2026-05-03 20:44 | 8.52780 | -59.06063 | 24875 ft | 449 kts | 336° |
| 2026-05-03 20:45 | 8.55689 | -59.07273 | 25063 ft | 449 kts | 336° |
| 2026-05-03 20:45 | 8.58560 | -59.08468 | 25228 ft | 449 kts | 336° |
| 2026-05-03 20:45 | 8.61473 | -59.09681 | 25369 ft | 450 kts | 336° |
| 2026-05-03 20:45 | 8.64398 | -59.10899 | 25505 ft | 451 kts | 336° |
| 2026-05-03 20:46 | 8.67300 | -59.12108 | 25655 ft | 451 kts | 336° |
| 2026-05-03 20:46 | 8.70188 | -59.13311 | 25789 ft | 451 kts | 336° |
| 2026-05-03 20:46 | 8.73118 | -59.14532 | 25951 ft | 451 kts | 336° |
| 2026-05-03 20:46 | 8.76045 | -59.15752 | 26096 ft | 451 kts | 336° |
| 2026-05-03 20:47 | 8.78949 | -59.16962 | 26210 ft | 452 kts | 336° |
| 2026-05-03 20:47 | 8.81877 | -59.18183 | 26337 ft | 452 kts | 335° |
| 2026-05-03 20:47 | 8.84767 | -59.19389 | 26472 ft | 452 kts | 335° |
| 2026-05-03 20:47 | 8.87701 | -59.20610 | 26623 ft | 452 kts | 335° |
| 2026-05-03 20:48 | 8.90610 | -59.21822 | 26833 ft | 450 kts | 335° |
| 2026-05-03 20:48 | 8.93475 | -59.23017 | 27015 ft | 448 kts | 335° |
| 2026-05-03 20:48 | 8.96369 | -59.24226 | 27195 ft | 447 kts | 335° |
| 2026-05-03 20:48 | 8.99257 | -59.25431 | 27369 ft | 446 kts | 335° |
| 2026-05-03 20:49 | 9.02140 | -59.26633 | 27503 ft | 446 kts | 335° |
| 2026-05-03 20:49 | 9.05021 | -59.27837 | 27658 ft | 445 kts | 335° |
| 2026-05-03 20:49 | 9.07909 | -59.29044 | 27842 ft | 444 kts | 334° |
| 2026-05-03 20:49 | 9.10781 | -59.30244 | 28017 ft | 443 kts | 334° |
| 2026-05-03 20:50 | 9.13612 | -59.31426 | 28149 ft | 443 kts | 334° |
| 2026-05-03 20:50 | 9.16453 | -59.32612 | 28318 ft | 442 kts | 334° |
| 2026-05-03 20:50 | 9.19313 | -59.33807 | 28505 ft | 441 kts | 334° |
| 2026-05-03 20:50 | 9.22142 | -59.34991 | 28700 ft | 439 kts | 334° |
| 2026-05-03 20:51 | 9.25001 | -59.36186 | 28838 ft | 440 kts | 334° |
| 2026-05-03 20:51 | 9.27811 | -59.37362 | 28985 ft | 439 kts | 334° |
| 2026-05-03 20:51 | 9.30643 | -59.38546 | 29171 ft | 438 kts | 334° |
| 2026-05-03 20:51 | 9.33451 | -59.39720 | 29341 ft | 438 kts | 334° |
| 2026-05-03 20:52 | 9.36278 | -59.40902 | 29488 ft | 438 kts | 334° |
| 2026-05-03 20:52 | 9.39111 | -59.42088 | 29638 ft | 438 kts | 334° |
| 2026-05-03 20:52 | 9.41942 | -59.43272 | 29791 ft | 437 kts | 334° |
| 2026-05-03 20:52 | 9.44763 | -59.44451 | 29990 ft | 436 kts | 334° |
| 2026-05-03 20:53 | 9.47541 | -59.45615 | 30159 ft | 435 kts | 334° |
| 2026-05-03 20:53 | 9.50360 | -59.46795 | 30294 ft | 436 kts | 334° |
| 2026-05-03 20:53 | 9.53183 | -59.47977 | 30390 ft | 437 kts | 334° |
| 2026-05-03 20:53 | 9.55967 | -59.49144 | 30512 ft | 437 kts | 334° |
| 2026-05-03 20:54 | 9.58796 | -59.50329 | 30645 ft | 437 kts | 334° |
| 2026-05-03 20:54 | 9.64448 | -59.52699 | 30893 ft | 438 kts | 334° |
| 2026-05-03 20:54 | 9.67240 | -59.53868 | 31041 ft | 437 kts | 334° |
| 2026-05-03 20:55 | 9.70064 | -59.55052 | 31211 ft | 436 kts | 334° |
| 2026-05-03 20:55 | 9.72876 | -59.56230 | 31337 ft | 437 kts | 334° |
| 2026-05-03 20:55 | 9.78522 | -59.58596 | 31523 ft | 438 kts | 334° |
| 2026-05-03 20:56 | 9.81344 | -59.59780 | 31665 ft | 438 kts | 334° |
| 2026-05-03 20:56 | 9.84169 | -59.60966 | 31813 ft | 437 kts | 334° |
| 2026-05-03 20:56 | 9.89789 | -59.63324 | 31946 ft | 438 kts | 334° |
| 2026-05-03 20:57 | 9.95448 | -59.65700 | 31952 ft | 438 kts | 334° |
| 2026-05-03 20:57 | 10.01082 | -59.68067 | 31952 ft | 436 kts | 334° |
| 2026-05-03 20:58 | 10.06706 | -59.70429 | 31957 ft | 436 kts | 334° |
| 2026-05-03 20:58 | 10.12316 | -59.72787 | 31958 ft | 435 kts | 334° |
| 2026-05-03 20:59 | 10.17915 | -59.75141 | 31959 ft | 436 kts | 334° |
| 2026-05-03 20:59 | 10.23532 | -59.77504 | 31963 ft | 437 kts | 334° |
| 2026-05-03 21:00 | 10.27292 | -59.79087 | 31960 ft | 437 kts | 334° |
| 2026-05-03 21:00 | 10.34788 | -59.82243 | 31957 ft | 436 kts | 334° |
| 2026-05-03 21:01 | 10.40421 | -59.84613 | 31961 ft | 436 kts | 334° |
| 2026-05-03 21:01 | 10.46009 | -59.86967 | 31957 ft | 436 kts | 334° |
| 2026-05-03 21:02 | 10.51642 | -59.89341 | 31959 ft | 436 kts | 334° |
| 2026-05-03 21:02 | 10.57248 | -59.91705 | 31956 ft | 438 kts | 334° |
| 2026-05-03 21:03 | 10.62905 | -59.94091 | 31959 ft | 437 kts | 334° |
| 2026-05-03 21:03 | 10.68526 | -59.96463 | 31962 ft | 437 kts | 334° |
| 2026-05-03 21:04 | 10.74159 | -59.98840 | 31970 ft | 438 kts | 334° |
| 2026-05-03 21:04 | 10.79799 | -60.01221 | 31971 ft | 438 kts | 334° |
| 2026-05-03 21:05 | 10.85423 | -60.03599 | 31971 ft | 438 kts | 334° |
| 2026-05-03 21:05 | 10.91054 | -60.05978 | 31974 ft | 438 kts | 334° |
| 2026-05-03 21:06 | 10.96715 | -60.08371 | 31975 ft | 438 kts | 334° |
| 2026-05-03 21:06 | 11.02375 | -60.10766 | 31972 ft | 438 kts | 334° |
| 2026-05-03 21:07 | 11.08028 | -60.13158 | 31968 ft | 439 kts | 334° |
| 2026-05-03 21:07 | 11.13681 | -60.15552 | 31959 ft | 440 kts | 334° |
| 2026-05-03 21:08 | 11.19328 | -60.17943 | 31958 ft | 440 kts | 335° |
| 2026-05-03 21:08 | 11.25008 | -60.20349 | 31958 ft | 439 kts | 335° |
| 2026-05-03 21:09 | 11.30643 | -60.22737 | 31958 ft | 439 kts | 335° |
| 2026-05-03 21:09 | 11.36317 | -60.25143 | 31960 ft | 439 kts | 335° |
| 2026-05-03 21:10 | 11.41954 | -60.27535 | 31959 ft | 440 kts | 335° |
| 2026-05-03 21:10 | 11.47610 | -60.29935 | 31960 ft | 440 kts | 335° |
| 2026-05-03 21:11 | 11.53279 | -60.32344 | 31963 ft | 441 kts | 335° |
| 2026-05-03 21:11 | 11.58972 | -60.34761 | 31963 ft | 440 kts | 335° |
| 2026-05-03 21:12 | 11.64614 | -60.37159 | 31963 ft | 441 kts | 335° |
| 2026-05-03 21:12 | 11.70309 | -60.39581 | 31963 ft | 441 kts | 335° |
| 2026-05-03 21:13 | 11.75971 | -60.41988 | 31964 ft | 441 kts | 335° |
| 2026-05-03 21:13 | 11.81673 | -60.44414 | 31969 ft | 442 kts | 335° |
| 2026-05-03 21:14 | 11.87366 | -60.46838 | 31971 ft | 442 kts | 335° |
| 2026-05-03 21:14 | 11.93049 | -60.49258 | 31973 ft | 441 kts | 335° |
| 2026-05-03 21:15 | 11.98715 | -60.51674 | 31973 ft | 442 kts | 335° |
| 2026-05-03 21:15 | 12.04409 | -60.54103 | 31973 ft | 441 kts | 335° |
| 2026-05-03 21:16 | 12.10092 | -60.56525 | 31974 ft | 442 kts | 335° |
| 2026-05-03 21:16 | 12.15742 | -60.58936 | 31974 ft | 441 kts | 335° |
| 2026-05-03 21:17 | 12.20480 | -60.60957 | 31973 ft | 441 kts | 335° |
| 2026-05-03 21:17 | 12.27091 | -60.63783 | 31973 ft | 441 kts | 335° |
| 2026-05-03 21:18 | 12.32759 | -60.66205 | 31973 ft | 441 kts | 335° |
| 2026-05-03 21:18 | 12.38443 | -60.68634 | 31973 ft | 441 kts | 336° |
| 2026-05-03 21:19 | 12.44103 | -60.71055 | 31972 ft | 441 kts | 336° |
| 2026-05-03 21:19 | 12.49791 | -60.73489 | 31973 ft | 441 kts | 336° |
| 2026-05-03 21:20 | 12.55471 | -60.75923 | 31973 ft | 441 kts | 336° |
| 2026-05-03 21:20 | 12.61155 | -60.78359 | 31972 ft | 441 kts | 336° |
| 2026-05-03 21:21 | 12.66815 | -60.80782 | 31973 ft | 441 kts | 336° |
| 2026-05-03 21:21 | 12.72500 | -60.83219 | 31973 ft | 441 kts | 336° |
| 2026-05-03 21:22 | 12.78138 | -60.85638 | 31972 ft | 442 kts | 336° |
| 2026-05-03 21:22 | 12.83850 | -60.88088 | 31974 ft | 442 kts | 336° |
| 2026-05-03 21:23 | 12.89520 | -60.90523 | 31976 ft | 442 kts | 337° |
| 2026-05-03 21:23 | 12.95210 | -60.92967 | 31975 ft | 442 kts | 337° |
| 2026-05-03 21:24 | 13.00872 | -60.95401 | 31980 ft | 442 kts | 337° |
| 2026-05-03 21:24 | 13.06603 | -60.97866 | 31989 ft | 444 kts | 337° |
| 2026-05-03 21:25 | 13.12300 | -61.00316 | 31992 ft | 444 kts | 337° |
| 2026-05-03 21:25 | 13.18003 | -61.02771 | 31996 ft | 444 kts | 337° |
| 2026-05-03 21:26 | 13.23702 | -61.05224 | 32000 ft | 444 kts | 337° |
| 2026-05-03 21:26 | 13.29398 | -61.07678 | 32006 ft | 443 kts | 337° |
| 2026-05-03 21:27 | 13.35080 | -61.10128 | 32005 ft | 443 kts | 337° |
| 2026-05-03 21:27 | 13.40791 | -61.12592 | 32005 ft | 443 kts | 337° |
| 2026-05-03 21:28 | 13.46490 | -61.15051 | 32000 ft | 444 kts | 337° |
| 2026-05-03 21:28 | 13.52215 | -61.17522 | 31998 ft | 444 kts | 337° |
| 2026-05-03 21:29 | 13.57887 | -61.19972 | 31996 ft | 444 kts | 337° |
| 2026-05-03 21:29 | 13.63606 | -61.22444 | 31997 ft | 444 kts | 337° |
| 2026-05-03 21:30 | 13.69325 | -61.24918 | 31996 ft | 444 kts | 337° |
| 2026-05-03 21:30 | 13.75019 | -61.27382 | 31996 ft | 444 kts | 338° |
| 2026-05-03 21:31 | 13.80738 | -61.29858 | 31995 ft | 445 kts | 337° |
| 2026-05-03 21:31 | 13.86427 | -61.32321 | 31994 ft | 445 kts | 338° |
| 2026-05-03 21:32 | 13.92172 | -61.34810 | 31996 ft | 445 kts | 338° |
| 2026-05-03 21:32 | 13.97869 | -61.37280 | 31996 ft | 445 kts | 338° |
| 2026-05-03 21:33 | 14.03609 | -61.39771 | 31997 ft | 445 kts | 338° |
| 2026-05-03 21:33 | 14.09312 | -61.42247 | 31998 ft | 446 kts | 338° |
| 2026-05-03 21:34 | 14.15026 | -61.44729 | 31998 ft | 446 kts | 338° |
| 2026-05-03 21:34 | 14.20772 | -61.47226 | 32001 ft | 446 kts | 338° |
| 2026-05-03 21:35 | 14.26481 | -61.49708 | 31999 ft | 446 kts | 338° |
| 2026-05-03 21:35 | 14.32219 | -61.52203 | 31994 ft | 445 kts | 338° |
| 2026-05-03 21:36 | 14.37917 | -61.54683 | 31993 ft | 445 kts | 338° |
| 2026-05-03 21:36 | 14.43662 | -61.57186 | 31992 ft | 446 kts | 338° |
| 2026-05-03 21:37 | 14.49391 | -61.59683 | 31994 ft | 446 kts | 338° |
| 2026-05-03 21:37 | 14.55119 | -61.62181 | 31998 ft | 446 kts | 338° |
| 2026-05-03 21:38 | 14.60810 | -61.64663 | 31996 ft | 446 kts | 338° |
| 2026-05-03 21:38 | 14.66565 | -61.67175 | 31996 ft | 445 kts | 338° |
| 2026-05-03 21:39 | 14.72264 | -61.69663 | 31996 ft | 445 kts | 338° |
| 2026-05-03 21:39 | 14.77996 | -61.72168 | 31999 ft | 446 kts | 337° |
| 2026-05-03 21:40 | 14.83694 | -61.74660 | 31994 ft | 446 kts | 337° |
| 2026-05-03 21:40 | 14.89415 | -61.77163 | 31991 ft | 446 kts | 338° |
| 2026-05-03 21:41 | 14.95158 | -61.79678 | 31989 ft | 445 kts | 338° |
| 2026-05-03 21:41 | 15.00835 | -61.82165 | 31996 ft | 445 kts | 338° |
| 2026-05-03 21:42 | 15.06587 | -61.84685 | 32000 ft | 446 kts | 338° |
| 2026-05-03 21:42 | 15.12273 | -61.87178 | 32001 ft | 446 kts | 338° |
| 2026-05-03 21:43 | 15.18007 | -61.89694 | 32001 ft | 447 kts | 338° |
| 2026-05-03 21:43 | 15.23761 | -61.92194 | 31997 ft | 446 kts | 339° |
| 2026-05-03 21:44 | 15.29548 | -61.94524 | 31999 ft | 446 kts | 339° |
| 2026-05-03 21:44 | 15.35350 | -61.96843 | 31998 ft | 447 kts | 339° |
| 2026-05-03 21:45 | 15.41164 | -61.99180 | 31999 ft | 447 kts | 339° |
| 2026-05-03 21:45 | 15.46984 | -62.01526 | 31999 ft | 447 kts | 339° |
| 2026-05-03 21:46 | 15.52786 | -62.03867 | 31997 ft | 447 kts | 339° |
| 2026-05-03 21:46 | 15.58588 | -62.06212 | 31997 ft | 447 kts | 339° |
| 2026-05-03 21:47 | 15.64386 | -62.08557 | 31996 ft | 448 kts | 339° |
| 2026-05-03 21:47 | 15.70213 | -62.10915 | 31998 ft | 448 kts | 339° |
| 2026-05-03 21:48 | 15.76045 | -62.13276 | 31996 ft | 448 kts | 339° |
| 2026-05-03 21:48 | 15.81885 | -62.15641 | 31998 ft | 449 kts | 339° |
| 2026-05-03 21:49 | 15.87690 | -62.17995 | 31999 ft | 448 kts | 339° |
| 2026-05-03 21:49 | 15.93501 | -62.20352 | 31999 ft | 448 kts | 339° |
| 2026-05-03 21:50 | 15.99312 | -62.22712 | 32000 ft | 448 kts | 339° |
| 2026-05-03 21:50 | 16.05137 | -62.25078 | 31998 ft | 449 kts | 339° |
| 2026-05-03 21:51 | 16.10962 | -62.27445 | 32003 ft | 449 kts | 339° |
| 2026-05-03 21:51 | 16.16819 | -62.29826 | 32002 ft | 449 kts | 339° |
| 2026-05-03 21:52 | 16.22641 | -62.32195 | 32001 ft | 449 kts | 339° |
| 2026-05-03 21:52 | 16.28472 | -62.34568 | 32002 ft | 448 kts | 339° |
| 2026-05-03 21:53 | 16.34271 | -62.36932 | 32008 ft | 449 kts | 339° |
| 2026-05-03 21:53 | 16.40107 | -62.39311 | 32010 ft | 449 kts | 339° |
| 2026-05-03 21:54 | 16.45941 | -62.41691 | 32011 ft | 450 kts | 339° |
| 2026-05-03 21:54 | 16.51784 | -62.44076 | 32012 ft | 450 kts | 339° |
| 2026-05-03 21:55 | 16.57616 | -62.46459 | 32015 ft | 450 kts | 339° |
| 2026-05-03 21:55 | 16.63433 | -62.48837 | 32017 ft | 450 kts | 339° |
| 2026-05-03 21:56 | 16.69294 | -62.51234 | 32014 ft | 450 kts | 339° |
| 2026-05-03 21:56 | 16.75107 | -62.53613 | 32018 ft | 450 kts | 339° |
| 2026-05-03 21:57 | 16.80975 | -62.56017 | 32022 ft | 451 kts | 339° |
| 2026-05-03 21:57 | 16.86814 | -62.58410 | 32025 ft | 452 kts | 339° |
| 2026-05-03 21:58 | 16.92674 | -62.60813 | 32022 ft | 452 kts | 339° |
| 2026-05-03 21:58 | 16.98523 | -62.63213 | 32024 ft | 451 kts | 339° |
| 2026-05-03 21:59 | 17.04417 | -62.65634 | 32023 ft | 451 kts | 339° |
| 2026-05-03 21:59 | 17.10232 | -62.68024 | 32023 ft | 452 kts | 339° |
| 2026-05-03 22:00 | 17.16130 | -62.70449 | 32026 ft | 452 kts | 339° |
| 2026-05-03 22:00 | 17.21966 | -62.72850 | 32029 ft | 452 kts | 339° |
| 2026-05-03 22:01 | 17.27843 | -62.75270 | 32031 ft | 452 kts | 339° |
| 2026-05-03 22:01 | 17.33673 | -62.77673 | 32035 ft | 452 kts | 339° |
| 2026-05-03 22:02 | 17.39546 | -62.80095 | 32036 ft | 452 kts | 339° |
| 2026-05-03 22:02 | 17.45410 | -62.82516 | 32038 ft | 452 kts | 338° |
| 2026-05-03 22:03 | 17.51173 | -62.85228 | 32043 ft | 453 kts | 335° |
| 2026-05-03 22:03 | 17.56869 | -62.88099 | 32045 ft | 453 kts | 335° |
| 2026-05-03 22:04 | 17.62560 | -62.90971 | 32044 ft | 453 kts | 335° |
| 2026-05-03 22:04 | 17.68257 | -62.93845 | 32046 ft | 453 kts | 335° |
| 2026-05-03 22:05 | 17.73943 | -62.96714 | 32045 ft | 454 kts | 335° |
| 2026-05-03 22:05 | 17.79635 | -62.99589 | 32051 ft | 454 kts | 335° |
| 2026-05-03 22:06 | 17.85327 | -63.02464 | 32051 ft | 455 kts | 335° |
| 2026-05-03 22:06 | 17.91045 | -63.05355 | 32053 ft | 454 kts | 335° |
| 2026-05-03 22:07 | 17.96752 | -63.08243 | 32051 ft | 454 kts | 335° |
| 2026-05-03 22:07 | 18.02443 | -63.11125 | 32045 ft | 455 kts | 335° |
| 2026-05-03 22:08 | 18.08188 | -63.13969 | 32045 ft | 454 kts | 336° |
| 2026-05-03 22:09 | 18.19545 | -63.19471 | 32048 ft | 455 kts | 336° |
| 2026-05-03 22:10 | 18.28188 | -63.23675 | 32048 ft | 455 kts | 336° |
| 2026-05-03 22:10 | 18.33952 | -63.26481 | 32048 ft | 454 kts | 336° |
| 2026-05-03 22:11 | 18.39706 | -63.29285 | 32048 ft | 454 kts | 335° |
| 2026-05-03 22:11 | 18.45462 | -63.32092 | 32047 ft | 454 kts | 335° |
| 2026-05-03 22:12 | 18.51230 | -63.34909 | 32049 ft | 454 kts | 335° |
| 2026-05-03 22:12 | 18.56952 | -63.37707 | 32050 ft | 454 kts | 335° |
| 2026-05-03 22:13 | 18.62684 | -63.40511 | 32055 ft | 454 kts | 335° |
| 2026-05-03 22:13 | 18.68427 | -63.43322 | 32055 ft | 454 kts | 335° |
| 2026-05-03 22:14 | 18.74167 | -63.46134 | 32051 ft | 454 kts | 335° |
| 2026-05-03 22:14 | 18.79932 | -63.48960 | 32055 ft | 454 kts | 335° |
| 2026-05-03 22:15 | 18.85659 | -63.51770 | 32059 ft | 454 kts | 335° |
| 2026-05-03 22:15 | 18.91393 | -63.54585 | 32058 ft | 454 kts | 335° |
| 2026-05-03 22:16 | 18.97117 | -63.57398 | 32060 ft | 454 kts | 335° |
| 2026-05-03 22:16 | 19.02880 | -63.60231 | 32058 ft | 454 kts | 335° |
| 2026-05-03 22:17 | 19.08629 | -63.63061 | 32059 ft | 455 kts | 335° |
| 2026-05-03 22:17 | 19.14356 | -63.65883 | 32059 ft | 455 kts | 335° |
| 2026-05-03 22:18 | 19.20099 | -63.68713 | 32058 ft | 455 kts | 335° |
| 2026-05-03 22:18 | 19.25856 | -63.71553 | 32058 ft | 455 kts | 335° |
| 2026-05-03 22:19 | 19.31588 | -63.74382 | 32058 ft | 455 kts | 335° |
| 2026-05-03 22:19 | 19.37344 | -63.77225 | 32059 ft | 455 kts | 335° |
| 2026-05-03 22:20 | 19.43088 | -63.80065 | 32059 ft | 455 kts | 335° |
| 2026-05-03 22:20 | 19.48897 | -63.82940 | 32059 ft | 455 kts | 335° |
| 2026-05-03 22:21 | 19.54662 | -63.85796 | 32059 ft | 455 kts | 335° |
| 2026-05-03 22:21 | 19.60449 | -63.88665 | 32059 ft | 456 kts | 335° |
| 2026-05-03 22:22 | 19.66185 | -63.91510 | 32058 ft | 456 kts | 335° |
| 2026-05-03 22:22 | 19.71968 | -63.94379 | 32057 ft | 456 kts | 335° |
| 2026-05-03 22:23 | 19.77741 | -63.97247 | 32056 ft | 457 kts | 335° |
| 2026-05-03 22:23 | 19.83490 | -64.00107 | 32058 ft | 456 kts | 335° |
| 2026-05-03 22:24 | 19.89259 | -64.02979 | 32056 ft | 456 kts | 335° |
| 2026-05-03 22:24 | 19.95020 | -64.05849 | 32056 ft | 456 kts | 335° |
| 2026-05-03 22:25 | 20.00768 | -64.08714 | 32055 ft | 457 kts | 335° |
| 2026-05-03 22:25 | 20.06543 | -64.11594 | 32057 ft | 457 kts | 335° |
| 2026-05-03 22:26 | 20.12325 | -64.14481 | 32058 ft | 457 kts | 335° |
| 2026-05-03 22:26 | 20.18063 | -64.17348 | 32058 ft | 457 kts | 335° |
| 2026-05-03 22:27 | 20.23860 | -64.20247 | 32060 ft | 457 kts | 335° |
| 2026-05-03 22:27 | 20.29604 | -64.23121 | 32060 ft | 456 kts | 335° |
| 2026-05-03 22:28 | 20.35345 | -64.25997 | 32060 ft | 456 kts | 335° |
| 2026-05-03 22:28 | 20.41118 | -64.28872 | 32063 ft | 456 kts | 335° |
| 2026-05-03 22:29 | 20.46881 | -64.31725 | 32064 ft | 456 kts | 335° |
| 2026-05-03 22:29 | 20.52654 | -64.34587 | 32067 ft | 456 kts | 335° |
| 2026-05-03 22:30 | 20.58411 | -64.37446 | 32069 ft | 456 kts | 335° |
| 2026-05-03 22:30 | 20.64192 | -64.40319 | 32069 ft | 456 kts | 335° |
| 2026-05-03 22:31 | 20.69947 | -64.43182 | 32071 ft | 456 kts | 335° |
| 2026-05-03 22:31 | 20.75738 | -64.46066 | 32072 ft | 456 kts | 335° |
| 2026-05-03 22:32 | 20.81495 | -64.48934 | 32073 ft | 456 kts | 335° |
| 2026-05-03 22:32 | 20.87273 | -64.51817 | 32074 ft | 455 kts | 335° |
| 2026-05-03 22:33 | 20.93012 | -64.54681 | 32076 ft | 455 kts | 335° |
| 2026-05-03 22:33 | 20.98755 | -64.57551 | 32077 ft | 455 kts | 335° |
| 2026-05-03 22:34 | 21.04513 | -64.60431 | 32077 ft | 455 kts | 335° |
| 2026-05-03 22:34 | 21.10236 | -64.63295 | 32081 ft | 455 kts | 335° |
| 2026-05-03 22:35 | 21.15989 | -64.66176 | 32080 ft | 455 kts | 334° |
| 2026-05-03 22:35 | 21.21745 | -64.69061 | 32078 ft | 455 kts | 334° |
| 2026-05-03 22:36 | 21.27498 | -64.71948 | 32083 ft | 454 kts | 334° |
| 2026-05-03 22:36 | 21.33228 | -64.74827 | 32080 ft | 454 kts | 334° |
| 2026-05-03 22:37 | 21.38958 | -64.77706 | 32080 ft | 454 kts | 334° |
| 2026-05-03 22:37 | 21.44680 | -64.80585 | 32080 ft | 454 kts | 334° |
| 2026-05-03 22:38 | 21.50394 | -64.83462 | 32078 ft | 454 kts | 334° |
| 2026-05-03 22:38 | 21.56116 | -64.86346 | 32080 ft | 454 kts | 334° |
| 2026-05-03 22:39 | 21.61841 | -64.89233 | 32078 ft | 454 kts | 334° |
| 2026-05-03 22:39 | 21.67554 | -64.92119 | 32078 ft | 453 kts | 334° |
| 2026-05-03 22:40 | 21.73261 | -64.95001 | 32080 ft | 453 kts | 334° |
| 2026-05-03 22:40 | 21.79000 | -64.97903 | 32080 ft | 453 kts | 334° |
| 2026-05-03 22:41 | 21.84703 | -65.00790 | 32079 ft | 453 kts | 334° |
| 2026-05-03 22:41 | 21.90408 | -65.03681 | 32079 ft | 453 kts | 334° |
| 2026-05-03 22:42 | 21.96137 | -65.06587 | 32081 ft | 453 kts | 334° |
| 2026-05-03 22:42 | 22.01839 | -65.09481 | 32079 ft | 453 kts | 334° |
| 2026-05-03 22:43 | 22.07548 | -65.12292 | 32078 ft | 453 kts | 337° |
| 2026-05-03 22:43 | 22.13538 | -65.14556 | 32078 ft | 454 kts | 343° |
| 2026-05-03 22:44 | 22.19646 | -65.16325 | 32078 ft | 454 kts | 344° |
| 2026-05-03 22:44 | 22.25752 | -65.18048 | 32078 ft | 454 kts | 344° |
| 2026-05-03 22:45 | 22.31902 | -65.19791 | 32078 ft | 455 kts | 344° |
| 2026-05-03 22:45 | 22.38005 | -65.21525 | 32077 ft | 455 kts | 344° |
| 2026-05-03 22:46 | 22.44173 | -65.23280 | 32078 ft | 455 kts | 344° |
| 2026-05-03 22:46 | 22.50298 | -65.25025 | 32078 ft | 455 kts | 344° |
| 2026-05-03 22:47 | 22.56424 | -65.26772 | 32079 ft | 455 kts | 344° |
| 2026-05-03 22:47 | 22.62541 | -65.28518 | 32078 ft | 455 kts | 344° |
| 2026-05-03 22:48 | 22.68658 | -65.30267 | 32078 ft | 455 kts | 344° |
| 2026-05-03 22:48 | 22.74795 | -65.32022 | 32078 ft | 456 kts | 344° |
| 2026-05-03 22:49 | 22.80979 | -65.33793 | 32078 ft | 456 kts | 344° |
| 2026-05-03 22:49 | 22.87113 | -65.35551 | 32078 ft | 456 kts | 344° |
| 2026-05-03 22:50 | 22.93239 | -65.37307 | 32078 ft | 456 kts | 344° |
| 2026-05-03 22:50 | 22.99415 | -65.39079 | 32077 ft | 456 kts | 343° |
| 2026-05-03 22:51 | 23.05567 | -65.40847 | 32079 ft | 456 kts | 343° |
| 2026-05-03 22:51 | 23.11683 | -65.42606 | 32078 ft | 457 kts | 343° |
| 2026-05-03 22:52 | 23.17844 | -65.44380 | 32082 ft | 457 kts | 343° |
| 2026-05-03 22:52 | 23.24013 | -65.46157 | 32082 ft | 456 kts | 343° |
| 2026-05-03 22:53 | 23.30125 | -65.47920 | 32088 ft | 457 kts | 343° |
| 2026-05-03 22:53 | 23.36297 | -65.49702 | 32089 ft | 457 kts | 343° |
| 2026-05-03 22:54 | 23.42444 | -65.51478 | 32090 ft | 457 kts | 343° |
| 2026-05-03 22:54 | 23.48590 | -65.53232 | 32091 ft | 457 kts | 345° |
| 2026-05-03 22:55 | 23.54885 | -65.54531 | 32092 ft | 459 kts | 349° |
| 2026-05-03 22:55 | 23.61158 | -65.55618 | 32094 ft | 459 kts | 349° |
| 2026-05-03 22:56 | 23.67488 | -65.56709 | 32096 ft | 459 kts | 349° |
| 2026-05-03 22:56 | 23.73780 | -65.57797 | 32100 ft | 459 kts | 349° |
| 2026-05-03 22:57 | 23.80119 | -65.58897 | 32101 ft | 459 kts | 349° |
| 2026-05-03 22:57 | 23.86424 | -65.59994 | 32102 ft | 459 kts | 349° |
| 2026-05-03 22:58 | 23.92747 | -65.61095 | 32106 ft | 459 kts | 349° |
| 2026-05-03 22:58 | 23.99042 | -65.62193 | 32107 ft | 458 kts | 349° |
| 2026-05-03 22:59 | 24.05345 | -65.63293 | 32107 ft | 458 kts | 349° |
| 2026-05-03 22:59 | 24.11678 | -65.64399 | 32113 ft | 459 kts | 348° |
| 2026-05-03 23:00 | 24.18027 | -65.65509 | 32107 ft | 460 kts | 348° |
| 2026-05-03 23:00 | 24.24332 | -65.66612 | 32110 ft | 460 kts | 348° |
| 2026-05-03 23:01 | 24.30685 | -65.67725 | 32111 ft | 460 kts | 348° |
| 2026-05-03 23:01 | 24.36973 | -65.68827 | 32114 ft | 459 kts | 348° |
| 2026-05-03 23:02 | 24.43314 | -65.69939 | 32111 ft | 459 kts | 348° |
| 2026-05-03 23:02 | 24.49618 | -65.71048 | 32116 ft | 459 kts | 348° |
| 2026-05-03 23:03 | 24.55923 | -65.72157 | 32114 ft | 460 kts | 348° |
| 2026-05-03 23:03 | 24.62268 | -65.73274 | 32114 ft | 460 kts | 348° |
| 2026-05-03 23:04 | 24.68598 | -65.74389 | 32117 ft | 460 kts | 348° |
| 2026-05-03 23:04 | 24.74940 | -65.75509 | 32116 ft | 460 kts | 348° |
| 2026-05-03 23:05 | 24.81256 | -65.76623 | 32118 ft | 460 kts | 348° |
| 2026-05-03 23:05 | 24.87566 | -65.77737 | 32120 ft | 460 kts | 347° |
| 2026-05-03 23:06 | 24.93926 | -65.78862 | 32121 ft | 461 kts | 347° |
| 2026-05-03 23:06 | 25.00281 | -65.79991 | 32121 ft | 461 kts | 347° |
| 2026-05-03 23:07 | 25.06619 | -65.81117 | 32118 ft | 461 kts | 347° |
| 2026-05-03 23:07 | 25.12968 | -65.82246 | 32339 ft | 462 kts | 347° |
| 2026-05-03 23:07 | 25.16175 | -65.82815 | 32613 ft | 460 kts | 347° |
| 2026-05-03 23:08 | 25.19354 | -65.83380 | 32874 ft | 458 kts | 347° |
| 2026-05-03 23:08 | 25.22533 | -65.83946 | 33119 ft | 457 kts | 347° |
| 2026-05-03 23:08 | 25.25660 | -65.84503 | 33357 ft | 456 kts | 347° |
| 2026-05-03 23:08 | 25.28787 | -65.85060 | 33599 ft | 455 kts | 347° |
| 2026-05-03 23:09 | 25.31922 | -65.85618 | 33832 ft | 454 kts | 347° |
| 2026-05-03 23:09 | 25.35027 | -65.86170 | 34042 ft | 453 kts | 347° |
| 2026-05-03 23:09 | 25.38190 | -65.86735 | 34108 ft | 454 kts | 347° |
| 2026-05-03 23:10 | 25.44406 | -65.87846 | 34120 ft | 453 kts | 347° |
| 2026-05-03 23:10 | 25.50649 | -65.88962 | 34119 ft | 453 kts | 347° |
| 2026-05-03 23:11 | 25.56884 | -65.90076 | 34120 ft | 453 kts | 347° |
| 2026-05-03 23:11 | 25.63102 | -65.91190 | 34119 ft | 453 kts | 346° |
| 2026-05-03 23:12 | 25.69372 | -65.92315 | 34118 ft | 453 kts | 346° |
| 2026-05-03 23:12 | 25.75596 | -65.93431 | 34120 ft | 453 kts | 346° |
| 2026-05-03 23:13 | 25.81825 | -65.94550 | 34120 ft | 454 kts | 346° |
| 2026-05-03 23:13 | 25.88089 | -65.95679 | 34119 ft | 454 kts | 346° |
| 2026-05-03 23:14 | 25.94309 | -65.96799 | 34120 ft | 455 kts | 346° |
| 2026-05-03 23:14 | 26.00586 | -65.97929 | 34120 ft | 455 kts | 346° |
| 2026-05-03 23:15 | 26.06858 | -65.99059 | 34119 ft | 455 kts | 346° |
| 2026-05-03 23:15 | 26.13087 | -66.00184 | 34119 ft | 455 kts | 346° |
| 2026-05-03 23:16 | 26.19362 | -66.01321 | 34119 ft | 455 kts | 346° |
| 2026-05-03 23:16 | 26.25614 | -66.02451 | 34118 ft | 455 kts | 346° |
| 2026-05-03 23:17 | 26.31859 | -66.03581 | 34119 ft | 455 kts | 346° |
| 2026-05-03 23:17 | 26.38127 | -66.04720 | 34119 ft | 454 kts | 346° |
| 2026-05-03 23:18 | 26.44374 | -66.05854 | 34120 ft | 455 kts | 345° |
| 2026-05-03 23:18 | 26.50645 | -66.06995 | 34117 ft | 455 kts | 346° |
| 2026-05-03 23:19 | 26.56888 | -66.08132 | 34120 ft | 455 kts | 345° |
| 2026-05-03 23:19 | 26.63165 | -66.09275 | 34119 ft | 455 kts | 345° |
| 2026-05-03 23:20 | 26.69439 | -66.10420 | 34119 ft | 456 kts | 345° |
| 2026-05-03 23:20 | 26.75683 | -66.11559 | 34117 ft | 455 kts | 345° |
| 2026-05-03 23:21 | 26.81964 | -66.12708 | 34118 ft | 455 kts | 345° |
| 2026-05-03 23:21 | 26.88225 | -66.13854 | 34117 ft | 455 kts | 345° |
| 2026-05-03 23:22 | 26.97614 | -66.15575 | 34117 ft | 456 kts | 345° |
| 2026-05-03 23:22 | 27.03863 | -66.16721 | 34114 ft | 456 kts | 345° |
| 2026-05-03 23:23 | 27.10162 | -66.17879 | 34115 ft | 456 kts | 345° |
| 2026-05-03 23:23 | 27.16419 | -66.19031 | 34113 ft | 456 kts | 345° |
| 2026-05-03 23:24 | 27.22719 | -66.20192 | 34112 ft | 456 kts | 345° |
| 2026-05-03 23:24 | 27.28996 | -66.21349 | 34110 ft | 456 kts | 345° |
| 2026-05-03 23:25 | 27.35237 | -66.22501 | 34110 ft | 456 kts | 345° |
| 2026-05-03 23:25 | 27.41534 | -66.23664 | 34108 ft | 456 kts | 344° |
| 2026-05-03 23:26 | 27.47821 | -66.24828 | 34108 ft | 457 kts | 344° |
| 2026-05-03 23:26 | 27.54095 | -66.25990 | 34106 ft | 457 kts | 344° |
| 2026-05-03 23:27 | 27.60370 | -66.27153 | 34104 ft | 457 kts | 344° |
| 2026-05-03 23:27 | 27.66647 | -66.28318 | 34105 ft | 457 kts | 344° |
| 2026-05-03 23:28 | 27.72945 | -66.29490 | 34104 ft | 458 kts | 344° |
| 2026-05-03 23:28 | 27.79256 | -66.30663 | 34103 ft | 457 kts | 344° |
| 2026-05-03 23:29 | 27.85549 | -66.31836 | 34102 ft | 457 kts | 344° |
| 2026-05-03 23:29 | 27.91842 | -66.33011 | 34100 ft | 458 kts | 344° |
| 2026-05-03 23:30 | 27.98123 | -66.34184 | 34100 ft | 458 kts | 344° |
| 2026-05-03 23:30 | 28.04451 | -66.35366 | 34100 ft | 457 kts | 344° |
| 2026-05-03 23:31 | 28.10739 | -66.36543 | 34096 ft | 458 kts | 344° |
| 2026-05-03 23:31 | 28.17054 | -66.37727 | 34098 ft | 459 kts | 344° |
| 2026-05-03 23:32 | 28.23329 | -66.38905 | 34101 ft | 459 kts | 344° |
| 2026-05-03 23:32 | 28.29658 | -66.40093 | 34097 ft | 459 kts | 343° |
| 2026-05-03 23:33 | 28.35939 | -66.41273 | 34096 ft | 460 kts | 343° |
| 2026-05-03 23:33 | 28.42256 | -66.42465 | 34093 ft | 460 kts | 343° |
| 2026-05-03 23:34 | 28.48555 | -66.43652 | 34096 ft | 459 kts | 343° |
| 2026-05-03 23:34 | 28.54885 | -66.44848 | 34093 ft | 460 kts | 343° |
| 2026-05-03 23:35 | 28.61206 | -66.46041 | 34089 ft | 460 kts | 343° |
| 2026-05-03 23:35 | 28.67508 | -66.47234 | 34095 ft | 460 kts | 343° |
| 2026-05-03 23:36 | 28.73866 | -66.48440 | 34093 ft | 460 kts | 343° |
| 2026-05-03 23:36 | 28.80157 | -66.49633 | 34088 ft | 460 kts | 343° |
| 2026-05-03 23:37 | 28.86477 | -66.50831 | 34090 ft | 460 kts | 343° |
| 2026-05-03 23:37 | 28.92820 | -66.52038 | 34082 ft | 460 kts | 343° |
| 2026-05-03 23:38 | 28.99142 | -66.53243 | 34081 ft | 461 kts | 343° |
| 2026-05-03 23:38 | 29.05481 | -66.54451 | 34082 ft | 461 kts | 342° |
| 2026-05-03 23:39 | 29.11794 | -66.55656 | 34083 ft | 462 kts | 342° |
| 2026-05-03 23:39 | 29.18144 | -66.56870 | 34082 ft | 461 kts | 342° |
| 2026-05-03 23:40 | 29.24458 | -66.58079 | 34085 ft | 462 kts | 342° |
| 2026-05-03 23:40 | 29.30830 | -66.59299 | 34088 ft | 463 kts | 342° |
| 2026-05-03 23:41 | 29.37177 | -66.60516 | 34087 ft | 462 kts | 342° |
| 2026-05-03 23:41 | 29.43535 | -66.61739 | 34089 ft | 463 kts | 342° |
| 2026-05-03 23:42 | 29.49874 | -66.62955 | 34088 ft | 463 kts | 342° |
| 2026-05-03 23:42 | 29.56239 | -66.64182 | 34091 ft | 464 kts | 342° |
| 2026-05-03 23:43 | 29.62618 | -66.65411 | 34097 ft | 464 kts | 341° |
| 2026-05-03 23:43 | 29.68982 | -66.66638 | 34093 ft | 464 kts | 341° |
| 2026-05-03 23:44 | 29.75389 | -66.67878 | 34097 ft | 464 kts | 341° |
| 2026-05-03 23:44 | 29.81741 | -66.69105 | 34097 ft | 464 kts | 341° |
| 2026-05-03 23:45 | 29.88095 | -66.70335 | 34101 ft | 464 kts | 341° |
| 2026-05-03 23:45 | 29.94493 | -66.71585 | 34099 ft | 465 kts | 341° |
| 2026-05-03 23:46 | 30.00892 | -66.72842 | 34099 ft | 463 kts | 341° |
| 2026-05-03 23:46 | 30.07255 | -66.74097 | 34095 ft | 463 kts | 341° |
| 2026-05-03 23:47 | 30.13602 | -66.75347 | 34098 ft | 464 kts | 341° |
| 2026-05-03 23:47 | 30.19981 | -66.76605 | 34097 ft | 464 kts | 340° |
| 2026-05-03 23:48 | 30.26372 | -66.77869 | 34099 ft | 465 kts | 341° |
| 2026-05-03 23:48 | 30.32773 | -66.79136 | 34094 ft | 467 kts | 340° |
| 2026-05-03 23:49 | 30.39145 | -66.80395 | 34093 ft | 466 kts | 341° |
| 2026-05-03 23:49 | 30.45550 | -66.81664 | 34095 ft | 467 kts | 340° |
| 2026-05-03 23:50 | 30.50890 | -66.82724 | 34092 ft | 466 kts | 340° |
| 2026-05-03 23:50 | 30.58372 | -66.84212 | 34088 ft | 466 kts | 340° |
| 2026-05-03 23:51 | 30.64764 | -66.85484 | 34087 ft | 465 kts | 340° |
| 2026-05-03 23:51 | 30.71180 | -66.86768 | 34086 ft | 468 kts | 340° |
| 2026-05-03 23:52 | 30.77552 | -66.88036 | 34087 ft | 467 kts | 340° |
| 2026-05-03 23:52 | 30.83984 | -66.89321 | 34087 ft | 467 kts | 340° |
| 2026-05-03 23:53 | 30.90391 | -66.90605 | 34079 ft | 468 kts | 340° |
| 2026-05-03 23:53 | 30.96799 | -66.91891 | 34083 ft | 469 kts | 340° |
| 2026-05-03 23:54 | 31.03223 | -66.93175 | 34075 ft | 467 kts | 340° |
| 2026-05-03 23:54 | 31.09651 | -66.94468 | 34079 ft | 467 kts | 340° |
| 2026-05-03 23:55 | 31.16064 | -66.95760 | 34075 ft | 467 kts | 339° |
| 2026-05-03 23:55 | 31.22457 | -66.97050 | 34076 ft | 468 kts | 339° |
| 2026-05-03 23:56 | 31.28910 | -66.98354 | 34076 ft | 469 kts | 339° |
| 2026-05-03 23:56 | 31.35338 | -66.99651 | 34077 ft | 468 kts | 339° |
| 2026-05-03 23:57 | 31.41749 | -67.00950 | 34082 ft | 469 kts | 339° |
| 2026-05-03 23:57 | 31.48176 | -67.02252 | 34077 ft | 468 kts | 339° |
| 2026-05-03 23:58 | 31.54610 | -67.03557 | 34079 ft | 468 kts | 339° |
| 2026-05-03 23:58 | 31.61029 | -67.04861 | 34075 ft | 468 kts | 339° |
| 2026-05-03 23:59 | 31.67442 | -67.06166 | 34077 ft | 468 kts | 339° |
| 2026-05-03 23:59 | 31.73858 | -67.07473 | 34078 ft | 467 kts | 339° |
| 2026-05-04 00:00 | 31.80261 | -67.08781 | 34078 ft | 466 kts | 338° |
| 2026-05-04 00:00 | 31.86659 | -67.10090 | 34076 ft | 467 kts | 338° |
| 2026-05-04 00:01 | 31.93089 | -67.11407 | 34080 ft | 468 kts | 338° |
| 2026-05-04 00:01 | 31.99510 | -67.12725 | 34082 ft | 470 kts | 338° |
| 2026-05-04 00:02 | 32.05956 | -67.14047 | 34079 ft | 470 kts | 338° |
| 2026-05-04 00:02 | 32.12378 | -67.15365 | 34082 ft | 467 kts | 338° |
| 2026-05-04 00:03 | 32.18794 | -67.16684 | 34085 ft | 469 kts | 337° |
| 2026-05-04 00:03 | 32.25186 | -67.18002 | 34089 ft | 468 kts | 337° |
| 2026-05-04 00:04 | 32.31590 | -67.19325 | 34089 ft | 467 kts | 337° |
| 2026-05-04 00:04 | 32.38012 | -67.20653 | 34088 ft | 468 kts | 337° |
| 2026-05-04 00:05 | 32.44393 | -67.21974 | 34093 ft | 468 kts | 337° |
| 2026-05-04 00:05 | 32.50805 | -67.23304 | 34091 ft | 466 kts | 337° |
| 2026-05-04 00:06 | 32.57225 | -67.24638 | 34094 ft | 468 kts | 336° |
| 2026-05-04 00:06 | 32.63640 | -67.25974 | 34098 ft | 468 kts | 336° |
| 2026-05-04 00:07 | 32.70050 | -67.27309 | 34092 ft | 467 kts | 336° |
| 2026-05-04 00:07 | 32.76411 | -67.28633 | 34091 ft | 466 kts | 336° |
| 2026-05-04 00:08 | 32.82809 | -67.29968 | 34089 ft | 464 kts | 336° |
| 2026-05-04 00:08 | 32.89167 | -67.31300 | 34086 ft | 466 kts | 336° |
| 2026-05-04 00:09 | 32.95539 | -67.32635 | 34085 ft | 466 kts | 336° |
| 2026-05-04 00:09 | 33.01965 | -67.33984 | 34084 ft | 468 kts | 336° |
| 2026-05-04 00:10 | 33.08355 | -67.35326 | 34090 ft | 466 kts | 336° |
| 2026-05-04 00:10 | 33.14749 | -67.36671 | 34091 ft | 466 kts | 335° |
| 2026-05-04 00:11 | 33.21130 | -67.38016 | 34091 ft | 465 kts | 336° |
| 2026-05-04 00:11 | 33.27520 | -67.39367 | 34093 ft | 465 kts | 335° |
| 2026-05-04 00:12 | 33.33862 | -67.40706 | 34094 ft | 464 kts | 335° |
| 2026-05-04 00:12 | 33.40196 | -67.42046 | 34099 ft | 462 kts | 335° |
| 2026-05-04 00:13 | 33.46530 | -67.43391 | 34095 ft | 462 kts | 335° |
| 2026-05-04 00:13 | 33.52877 | -67.44737 | 34094 ft | 462 kts | 335° |
| 2026-05-04 00:14 | 33.59224 | -67.46088 | 34096 ft | 463 kts | 335° |
| 2026-05-04 00:14 | 33.65589 | -67.47443 | 34102 ft | 463 kts | 335° |
| 2026-05-04 00:15 | 33.71901 | -67.48786 | 34101 ft | 461 kts | 335° |
| 2026-05-04 00:15 | 33.78251 | -67.50142 | 34103 ft | 461 kts | 335° |
| 2026-05-04 00:16 | 33.84562 | -67.51495 | 34099 ft | 463 kts | 335° |
| 2026-05-04 00:16 | 33.90921 | -67.52856 | 34106 ft | 464 kts | 335° |
| 2026-05-04 00:17 | 33.97262 | -67.54209 | 34105 ft | 460 kts | 335° |
| 2026-05-04 00:17 | 34.03583 | -67.55574 | 34098 ft | 462 kts | 335° |
| 2026-05-04 00:18 | 34.09716 | -67.57390 | 34099 ft | 444 kts | 327° |
| 2026-05-04 00:18 | 34.15314 | -67.60134 | 34094 ft | 426 kts | 319° |
| 2026-05-04 00:19 | 34.20329 | -67.63663 | 34093 ft | 410 kts | 311° |
| 2026-05-04 00:19 | 34.24874 | -67.67683 | 34094 ft | 402 kts | 308° |
| 2026-05-04 00:20 | 34.29345 | -67.71738 | 34091 ft | 403 kts | 308° |
| 2026-05-04 00:20 | 34.33857 | -67.75831 | 34091 ft | 403 kts | 308° |
| 2026-05-04 00:21 | 34.38307 | -67.79863 | 34090 ft | 403 kts | 308° |
| 2026-05-04 00:21 | 34.42775 | -67.83916 | 34092 ft | 400 kts | 308° |
| 2026-05-04 00:22 | 34.47230 | -67.87965 | 34086 ft | 402 kts | 308° |
| 2026-05-04 00:22 | 34.51712 | -67.92040 | 34084 ft | 399 kts | 308° |
| 2026-05-04 00:23 | 34.56174 | -67.96108 | 34089 ft | 400 kts | 308° |
| 2026-05-04 00:23 | 34.60631 | -68.00175 | 34086 ft | 401 kts | 308° |
| 2026-05-04 00:24 | 34.65071 | -68.04233 | 34088 ft | 398 kts | 308° |
| 2026-05-04 00:24 | 34.69516 | -68.08299 | 34089 ft | 400 kts | 308° |
| 2026-05-04 00:25 | 34.73942 | -68.12349 | 34086 ft | 400 kts | 307° |
| 2026-05-04 00:25 | 34.78371 | -68.16409 | 34088 ft | 399 kts | 307° |
| 2026-05-04 00:26 | 34.82819 | -68.20500 | 34089 ft | 398 kts | 307° |
| 2026-05-04 00:26 | 34.87236 | -68.24557 | 34089 ft | 397 kts | 307° |
| 2026-05-04 00:27 | 34.91640 | -68.28609 | 34088 ft | 395 kts | 307° |
| 2026-05-04 00:27 | 34.96030 | -68.32659 | 34080 ft | 398 kts | 308° |
| 2026-05-04 00:28 | 35.00432 | -68.36727 | 34090 ft | 398 kts | 307° |
| 2026-05-04 00:28 | 35.04835 | -68.40805 | 34089 ft | 398 kts | 308° |
| 2026-05-04 00:29 | 35.09233 | -68.44870 | 34091 ft | 397 kts | 307° |
| 2026-05-04 00:29 | 35.13658 | -68.48978 | 34085 ft | 396 kts | 307° |
| 2026-05-04 00:30 | 35.18036 | -68.53040 | 34081 ft | 396 kts | 307° |
| 2026-05-04 00:30 | 35.22467 | -68.57167 | 34088 ft | 400 kts | 307° |
| 2026-05-04 00:31 | 35.26881 | -68.61276 | 34085 ft | 398 kts | 307° |
| 2026-05-04 00:31 | 35.31305 | -68.65404 | 34091 ft | 398 kts | 307° |
| 2026-05-04 00:32 | 35.35704 | -68.69505 | 34088 ft | 398 kts | 307° |
| 2026-05-04 00:32 | 35.40116 | -68.73632 | 34081 ft | 397 kts | 307° |
| 2026-05-04 00:33 | 35.46688 | -68.79791 | 34078 ft | 397 kts | 307° |
| 2026-05-04 00:34 | 35.51077 | -68.83911 | 34075 ft | 398 kts | 307° |
| 2026-05-04 00:34 | 35.55475 | -68.88041 | 34085 ft | 399 kts | 307° |
| 2026-05-04 00:35 | 35.59879 | -68.92184 | 34086 ft | 398 kts | 307° |
| 2026-05-04 00:35 | 35.64285 | -68.96343 | 34086 ft | 398 kts | 307° |
| 2026-05-04 00:36 | 35.68675 | -69.00483 | 34092 ft | 399 kts | 307° |
| 2026-05-04 00:36 | 35.73066 | -69.04635 | 34084 ft | 397 kts | 307° |
| 2026-05-04 00:37 | 35.77459 | -69.08794 | 34085 ft | 399 kts | 306° |
| 2026-05-04 00:37 | 35.81843 | -69.12952 | 34083 ft | 399 kts | 307° |
| 2026-05-04 00:38 | 35.86271 | -69.17154 | 34086 ft | 400 kts | 307° |
| 2026-05-04 00:38 | 35.90642 | -69.21311 | 34055 ft | 398 kts | 307° |
| 2026-05-04 00:39 | 35.95017 | -69.25477 | 34083 ft | 397 kts | 307° |
| 2026-05-04 00:39 | 35.99391 | -69.29645 | 34084 ft | 396 kts | 307° |
| 2026-05-04 00:40 | 36.03736 | -69.33795 | 34092 ft | 396 kts | 307° |
| 2026-05-04 00:40 | 36.08125 | -69.37994 | 34093 ft | 396 kts | 307° |
| 2026-05-04 00:41 | 36.12492 | -69.42177 | 34076 ft | 398 kts | 307° |
| 2026-05-04 00:41 | 36.16842 | -69.46346 | 34080 ft | 397 kts | 307° |
| 2026-05-04 00:42 | 36.21196 | -69.50527 | 34075 ft | 397 kts | 307° |
| 2026-05-04 00:42 | 36.25590 | -69.54755 | 34072 ft | 398 kts | 307° |
| 2026-05-04 00:43 | 36.29966 | -69.58970 | 34075 ft | 398 kts | 307° |
| 2026-05-04 00:43 | 36.34326 | -69.63178 | 34066 ft | 397 kts | 308° |
| 2026-05-04 00:44 | 36.38691 | -69.67393 | 34080 ft | 397 kts | 307° |
| 2026-05-04 00:44 | 36.43013 | -69.71574 | 34069 ft | 395 kts | 307° |
| 2026-05-04 00:45 | 36.47353 | -69.75777 | 34076 ft | 396 kts | 307° |
| 2026-05-04 00:45 | 36.51698 | -69.79995 | 34076 ft | 396 kts | 307° |
| 2026-05-04 00:46 | 36.56049 | -69.84222 | 34070 ft | 396 kts | 307° |
| 2026-05-04 00:46 | 36.60398 | -69.88455 | 34072 ft | 397 kts | 307° |
| 2026-05-04 00:47 | 36.64727 | -69.92674 | 34058 ft | 394 kts | 308° |
| 2026-05-04 00:47 | 36.69047 | -69.96890 | 34070 ft | 395 kts | 308° |
| 2026-05-04 00:48 | 36.73362 | -70.01107 | 34093 ft | 394 kts | 308° |
| 2026-05-04 00:48 | 36.77671 | -70.05326 | 34079 ft | 395 kts | 307° |
| 2026-05-04 00:49 | 36.82002 | -70.09576 | 34077 ft | 395 kts | 308° |
| 2026-05-04 00:49 | 36.86324 | -70.13817 | 34077 ft | 395 kts | 308° |
| 2026-05-04 00:50 | 36.90636 | -70.18059 | 34078 ft | 394 kts | 308° |
| 2026-05-04 00:50 | 36.94951 | -70.22307 | 34084 ft | 396 kts | 308° |
| 2026-05-04 00:51 | 36.99274 | -70.26570 | 34085 ft | 395 kts | 308° |
| 2026-05-04 00:51 | 37.03550 | -70.30791 | 34088 ft | 393 kts | 308° |
| 2026-05-04 00:52 | 37.07869 | -70.35062 | 34081 ft | 394 kts | 308° |
| 2026-05-04 00:52 | 37.12135 | -70.39286 | 34087 ft | 394 kts | 308° |
| 2026-05-04 00:53 | 37.16449 | -70.43568 | 34084 ft | 394 kts | 308° |
| 2026-05-04 00:53 | 37.20753 | -70.47845 | 34088 ft | 394 kts | 308° |
| 2026-05-04 00:54 | 37.25049 | -70.52121 | 34082 ft | 393 kts | 308° |
| 2026-05-04 00:54 | 37.29320 | -70.56377 | 34084 ft | 393 kts | 309° |
| 2026-05-04 00:55 | 37.33604 | -70.60651 | 34087 ft | 393 kts | 309° |
| 2026-05-04 00:55 | 37.37886 | -70.64931 | 34089 ft | 393 kts | 309° |
| 2026-05-04 00:56 | 37.42150 | -70.69202 | 34093 ft | 391 kts | 308° |
| 2026-05-04 00:56 | 37.46417 | -70.73477 | 34088 ft | 391 kts | 308° |
| 2026-05-04 00:57 | 37.50652 | -70.77731 | 34085 ft | 392 kts | 308° |
| 2026-05-04 00:57 | 37.54919 | -70.82021 | 34090 ft | 392 kts | 308° |
| 2026-05-04 00:58 | 37.59191 | -70.86323 | 34087 ft | 393 kts | 308° |
| 2026-05-04 00:58 | 37.63462 | -70.90633 | 34088 ft | 393 kts | 308° |
| 2026-05-04 00:59 | 37.67718 | -70.94931 | 34089 ft | 393 kts | 309° |
| 2026-05-04 00:59 | 37.72184 | -70.99032 | 34088 ft | 400 kts | 314° |
| 2026-05-04 01:00 | 37.77000 | -71.02728 | 34084 ft | 405 kts | 316° |
| 2026-05-04 01:00 | 37.81849 | -71.06317 | 34085 ft | 407 kts | 316° |
| 2026-05-04 01:01 | 37.86752 | -71.09950 | 34083 ft | 406 kts | 316° |
| 2026-05-04 01:01 | 37.91594 | -71.13540 | 34079 ft | 406 kts | 317° |
| 2026-05-04 01:02 | 37.96476 | -71.17169 | 34081 ft | 407 kts | 316° |
| 2026-05-04 01:02 | 38.01364 | -71.20804 | 34084 ft | 406 kts | 317° |
| 2026-05-04 01:03 | 38.06234 | -71.24438 | 34067 ft | 405 kts | 317° |
| 2026-05-04 01:03 | 38.11095 | -71.28070 | 34062 ft | 407 kts | 317° |
| 2026-05-04 01:04 | 38.15973 | -71.31718 | 34069 ft | 406 kts | 317° |
| 2026-05-04 01:04 | 38.20835 | -71.35359 | 34062 ft | 408 kts | 317° |
| 2026-05-04 01:05 | 38.25709 | -71.39017 | 34072 ft | 407 kts | 317° |
| 2026-05-04 01:05 | 38.30592 | -71.42689 | 34044 ft | 409 kts | 317° |
| 2026-05-04 01:06 | 38.35522 | -71.46398 | 34055 ft | 410 kts | 318° |
| 2026-05-04 01:06 | 38.40413 | -71.50081 | 34066 ft | 410 kts | 317° |
| 2026-05-04 01:07 | 38.45320 | -71.53785 | 34054 ft | 410 kts | 318° |
| 2026-05-04 01:07 | 38.50234 | -71.57506 | 34031 ft | 411 kts | 318° |
| 2026-05-04 01:08 | 38.55143 | -71.61222 | 34037 ft | 411 kts | 318° |
| 2026-05-04 01:08 | 38.60093 | -71.64977 | 34057 ft | 413 kts | 319° |
| 2026-05-04 01:09 | 38.64997 | -71.68700 | 34053 ft | 412 kts | 318° |
| 2026-05-04 01:09 | 38.69825 | -71.72375 | 34039 ft | 411 kts | 318° |
| 2026-05-04 01:10 | 38.74742 | -71.76125 | 34038 ft | 412 kts | 318° |
| 2026-05-04 01:10 | 38.79703 | -71.79913 | 34045 ft | 414 kts | 319° |
| 2026-05-04 01:11 | 38.84645 | -71.83690 | 34054 ft | 415 kts | 318° |
| 2026-05-04 01:11 | 38.89601 | -71.87486 | 34023 ft | 415 kts | 319° |
| 2026-05-04 01:12 | 38.94578 | -71.91304 | 34036 ft | 415 kts | 319° |
| 2026-05-04 01:12 | 38.99370 | -71.95310 | 34023 ft | 411 kts | 314° |
| 2026-05-04 01:13 | 39.03885 | -71.99854 | 34035 ft | 408 kts | 311° |
| 2026-05-04 01:13 | 39.08267 | -72.04443 | 34032 ft | 408 kts | 312° |
| 2026-05-04 01:14 | 39.12685 | -72.09071 | 34028 ft | 408 kts | 312° |
| 2026-05-04 01:14 | 39.17094 | -72.13694 | 34036 ft | 408 kts | 312° |
| 2026-05-04 01:15 | 39.21486 | -72.18314 | 34026 ft | 408 kts | 312° |
| 2026-05-04 01:15 | 39.25870 | -72.22929 | 34038 ft | 408 kts | 312° |
| 2026-05-04 01:16 | 39.30260 | -72.27557 | 34022 ft | 408 kts | 313° |
| 2026-05-04 01:16 | 39.34659 | -72.32206 | 34027 ft | 409 kts | 313° |
| 2026-05-04 01:17 | 39.39077 | -72.36883 | 34029 ft | 408 kts | 313° |
| 2026-05-04 01:17 | 39.43443 | -72.41511 | 34026 ft | 407 kts | 313° |
| 2026-05-04 01:18 | 39.47811 | -72.46146 | 34025 ft | 407 kts | 313° |
| 2026-05-04 01:18 | 39.52209 | -72.50829 | 34025 ft | 408 kts | 313° |
| 2026-05-04 01:19 | 39.56582 | -72.55486 | 34027 ft | 409 kts | 313° |
| 2026-05-04 01:19 | 39.60981 | -72.60183 | 34013 ft | 410 kts | 314° |
| 2026-05-04 01:20 | 39.65370 | -72.64872 | 34013 ft | 410 kts | 313° |
| 2026-05-04 01:20 | 39.69771 | -72.69582 | 34009 ft | 408 kts | 313° |
| 2026-05-04 01:21 | 39.74166 | -72.74309 | 34008 ft | 408 kts | 312° |
| 2026-05-04 01:21 | 39.77900 | -72.79738 | 34006 ft | 398 kts | 299° |
| 2026-05-04 01:22 | 39.80430 | -72.86045 | 34004 ft | 391 kts | 287° |
| 2026-05-04 01:22 | 39.81708 | -72.92845 | 34004 ft | 388 kts | 276° |
| 2026-05-04 01:23 | 39.81825 | -72.99789 | 33444 ft | 382 kts | 269° |
| 2026-05-04 01:23 | 39.81750 | -73.03207 | 32461 ft | 389 kts | 269° |
| 2026-05-04 01:23 | 39.81661 | -73.06733 | 31392 ft | 397 kts | 269° |
| 2026-05-04 01:23 | 39.81567 | -73.10272 | 30113 ft | 399 kts | 270° |
| 2026-05-04 01:24 | 39.81471 | -73.13808 | 28580 ft | 401 kts | 269° |
| 2026-05-04 01:24 | 39.81372 | -73.17422 | 26806 ft | 406 kts | 269° |
| 2026-05-04 01:24 | 39.81272 | -73.21049 | 24945 ft | 410 kts | 270° |
| 2026-05-04 01:24 | 39.81427 | -73.24695 | 23632 ft | 398 kts | 278° |
| 2026-05-04 01:25 | 39.81968 | -73.28157 | 22437 ft | 387 kts | 285° |
| 2026-05-04 01:25 | 39.82848 | -73.31454 | 21039 ft | 382 kts | 291° |
| 2026-05-04 01:25 | 39.83828 | -73.34585 | 19697 ft | 378 kts | 292° |
| 2026-05-04 01:25 | 39.84827 | -73.37716 | 18687 ft | 374 kts | 292° |
| 2026-05-04 01:26 | 39.85818 | -73.40810 | 18260 ft | 363 kts | 292° |
| 2026-05-04 01:26 | 39.86778 | -73.43813 | 17827 ft | 356 kts | 292° |
| 2026-05-04 01:26 | 39.87722 | -73.46765 | 17397 ft | 352 kts | 293° |
| 2026-05-04 01:26 | 39.88656 | -73.49692 | 16968 ft | 350 kts | 293° |
| 2026-05-04 01:27 | 39.89585 | -73.52610 | 16535 ft | 348 kts | 293° |
| 2026-05-04 01:27 | 39.90516 | -73.55534 | 16103 ft | 345 kts | 293° |
| 2026-05-04 01:27 | 39.91439 | -73.58439 | 15668 ft | 342 kts | 293° |
| 2026-05-04 01:27 | 39.92346 | -73.61281 | 15239 ft | 340 kts | 294° |
| 2026-05-04 01:28 | 39.93341 | -73.64075 | 14773 ft | 337 kts | 297° |
| 2026-05-04 01:28 | 39.94371 | -73.66794 | 14319 ft | 334 kts | 296° |
| 2026-05-04 01:28 | 39.95414 | -73.69535 | 13871 ft | 332 kts | 297° |
| 2026-05-04 01:28 | 39.96442 | -73.72231 | 13441 ft | 329 kts | 297° |
| 2026-05-04 01:29 | 39.97454 | -73.74893 | 13005 ft | 327 kts | 297° |
| 2026-05-04 01:29 | 39.98457 | -73.77531 | 12584 ft | 324 kts | 297° |
| 2026-05-04 01:29 | 39.99471 | -73.80141 | 12143 ft | 321 kts | 301° |
| 2026-05-04 01:29 | 40.00934 | -73.82340 | 11686 ft | 318 kts | 321° |
| 2026-05-04 01:30 | 40.02881 | -73.83668 | 11265 ft | 318 kts | 340° |
| 2026-05-04 01:30 | 40.05076 | -73.84027 | 10955 ft | 317 kts | 359° |
| 2026-05-04 01:30 | 40.07201 | -73.83410 | 10833 ft | 310 kts | 14° |
| 2026-05-04 01:30 | 40.09199 | -73.82430 | 10664 ft | 299 kts | 15° |
| 2026-05-04 01:31 | 40.11148 | -73.81457 | 10383 ft | 292 kts | 15° |
| 2026-05-04 01:31 | 40.13033 | -73.80512 | 10235 ft | 281 kts | 15° |
| 2026-05-04 01:31 | 40.14814 | -73.79617 | 10165 ft | 268 kts | 15° |
| 2026-05-04 01:31 | 40.16515 | -73.78760 | 10090 ft | 256 kts | 15° |
| 2026-05-04 01:32 | 40.18178 | -73.77927 | 9981 ft | 252 kts | 15° |
| 2026-05-04 01:32 | 40.19824 | -73.77105 | 9580 ft | 255 kts | 14° |
| 2026-05-04 01:32 | 40.21497 | -73.76273 | 9186 ft | 256 kts | 15° |
| 2026-05-04 01:32 | 40.23169 | -73.75440 | 8815 ft | 256 kts | 15° |
| 2026-05-04 01:33 | 40.24843 | -73.74603 | 8446 ft | 257 kts | 15° |
| 2026-05-04 01:33 | 40.26524 | -73.73761 | 8074 ft | 257 kts | 15° |
| 2026-05-04 01:33 | 40.28199 | -73.72920 | 7716 ft | 256 kts | 15° |
| 2026-05-04 01:33 | 40.29864 | -73.72083 | 7359 ft | 256 kts | 14° |
| 2026-05-04 01:34 | 40.31536 | -73.71242 | 7008 ft | 255 kts | 15° |
| 2026-05-04 01:34 | 40.33193 | -73.70409 | 6664 ft | 254 kts | 15° |
| 2026-05-04 01:34 | 40.34869 | -73.69565 | 6318 ft | 253 kts | 15° |
| 2026-05-04 01:34 | 40.36499 | -73.68745 | 5983 ft | 252 kts | 15° |
| 2026-05-04 01:35 | 40.38145 | -73.67916 | 5651 ft | 251 kts | 15° |
| 2026-05-04 01:35 | 40.39775 | -73.67094 | 5320 ft | 251 kts | 15° |
| 2026-05-04 01:35 | 40.41404 | -73.66273 | 4984 ft | 250 kts | 15° |
| 2026-05-04 01:35 | 40.43038 | -73.65449 | 4658 ft | 248 kts | 15° |
| 2026-05-04 01:36 | 40.44652 | -73.64632 | 4346 ft | 248 kts | 15° |
| 2026-05-04 01:36 | 40.46280 | -73.63809 | 4025 ft | 247 kts | 15° |
| 2026-05-04 01:36 | 40.47883 | -73.62999 | 3690 ft | 247 kts | 15° |
| 2026-05-04 01:36 | 40.49492 | -73.62184 | 3442 ft | 242 kts | 15° |
| 2026-05-04 01:37 | 40.51040 | -73.61397 | 3421 ft | 238 kts | 15° |
| 2026-05-04 01:37 | 40.52589 | -73.60613 | 3371 ft | 237 kts | 15° |
| 2026-05-04 01:37 | 40.54093 | -73.59849 | 3269 ft | 227 kts | 15° |
| 2026-05-04 01:37 | 40.55570 | -73.59511 | 3097 ft | 207 kts | 346° |
| 2026-05-04 01:38 | 40.56794 | -73.60222 | 2968 ft | 186 kts | 319° |
| 2026-05-04 01:38 | 40.57661 | -73.61411 | 2697 ft | 178 kts | 305° |
| 2026-05-04 01:38 | 40.58370 | -73.62740 | 2365 ft | 171 kts | 301° |
| 2026-05-04 01:38 | 40.58967 | -73.63974 | 2145 ft | 153 kts | 299° |
| 2026-05-04 01:39 | 40.59502 | -73.65140 | 1908 ft | 142 kts | 298° |
| 2026-05-04 01:39 | 40.60004 | -73.66258 | 1723 ft | 141 kts | 298° |
| 2026-05-04 01:39 | 40.60505 | -73.67372 | 1541 ft | 141 kts | 298° |
| 2026-05-04 01:39 | 40.61007 | -73.68484 | 1361 ft | 140 kts | 298° |
| 2026-05-04 01:40 | 40.61502 | -73.69580 | 1179 ft | 140 kts | 298° |
| 2026-05-04 01:40 | 40.61998 | -73.70676 | 994 ft | 139 kts | 298° |
| 2026-05-04 01:40 | 40.62494 | -73.71771 | 804 ft | 139 kts | 298° |
| 2026-05-04 01:40 | 40.62990 | -73.72867 | 620 ft | 139 kts | 298° |
| 2026-05-04 01:41 | 40.63482 | -73.73949 | 414 ft | 138 kts | 299° |
| 2026-05-04 01:41 | 40.63971 | -73.75040 | 193 ft | 137 kts | 298° |
| 2026-05-04 01:41 | 40.64455 | -73.76105 | 61 ft | 136 kts | 299° |
| 2026-05-04 01:41 | 40.64923 | -73.77135 | 16 ft | 117 kts | 299° |
| 2026-05-04 01:42 | 40.65218 | -73.77795 | 15 ft | 43 kts | 301° |
| 2026-05-04 01:42 | 40.65311 | -73.78065 | 15 ft | 21 kts | 272° |
| 2026-05-04 01:42 | 40.65252 | -73.78131 | 15 ft | 8 kts | 151° |
| 2026-05-04 01:42 | 40.65215 | -73.78065 | 15 ft | 9 kts | 120° |
| 2026-05-04 01:43 | 40.65181 | -73.77988 | 15 ft | 10 kts | 120° |
| 2026-05-04 01:43 | 40.65143 | -73.77905 | 15 ft | 11 kts | 122° |
| 2026-05-04 01:43 | 40.65102 | -73.77820 | 15 ft | 11 kts | 122° |
| 2026-05-04 01:43 | 40.65056 | -73.77726 | 15 ft | 12 kts | 122° |
| 2026-05-04 01:44 | 40.65010 | -73.77628 | 15 ft | 12 kts | 117° |
| 2026-05-04 01:44 | 40.64967 | -73.77521 | 15 ft | 12 kts | 126° |
| 2026-05-04 01:44 | 40.64895 | -73.77548 | 15 ft | 12 kts | 217° |
| 2026-05-04 01:44 | 40.64827 | -73.77598 | 15 ft | 9 kts | 152° |
| 2026-05-04 01:45 | 40.64769 | -73.77542 | 15 ft | 10 kts | 164° |
| 2026-05-04 01:45 | 40.64724 | -73.77481 | 15 ft | 6 kts | 122° |
| 2026-05-04 01:45 | 40.64677 | -73.77468 | 15 ft | 3 kts | 214° |
| 2026-05-04 01:46 | 40.64656 | -73.77486 | 15 ft | 3 kts | 215° |
| 2026-05-04 01:46 | 40.64646 | -73.77496 | 15 ft | 0 kts | 216° |